Time;durP1;ratioP1;P1;durP2;ratioP2;P2;SDS_P1;SDS_P2;PMS_P1;PMS_P2;Temp;Humidity;BMP_temperature;BMP_pressure;BME280_temperature;BME280_humidity;BME280_pressure;Samples;Min_cycle;Max_cycle;Signal;HPM_P1;HPM_P2
2021/03/02 00:01:04;;;;;;;15.83;11.17;;;7.70;79.20;;;;;;5096635;28;20200;-46
2021/03/02 00:03:32;;;;;;;15.97;11.13;;;7.60;78.20;;;;;;5096845;28;20219;-52
2021/03/02 00:06:01;;;;;;;15.67;11.10;;;7.60;78.50;;;;;;5096488;28;20194;-52
2021/03/02 00:08:28;;;;;;;16.43;11.77;;;7.50;78.60;;;;;;5096436;28;20174;-47
2021/03/02 00:10:55;;;;;;;17.47;12.70;;;7.50;80.40;;;;;;5096124;28;20215;-43
2021/03/02 00:13:23;;;;;;;15.50;11.67;;;7.40;80.50;;;;;;5096405;28;20176;-46
2021/03/02 00:15:48;;;;;;;15.43;12.00;;;7.40;80.70;;;;;;5096060;28;20550;-44
2021/03/02 00:18:21;;;;;;;17.43;12.50;;;7.30;81.80;;;;;;5096185;28;20622;-47
2021/03/02 00:20:50;;;;;;;15.10;11.93;;;7.20;82.30;;;;;;5096525;28;20681;-53
2021/03/02 00:23:28;;;;;;;17.57;12.33;;;7.20;82.70;;;;;;5095876;28;20170;-50
2021/03/02 00:25:58;;;;;;;16.73;11.87;;;7.20;82.00;;;;;;5096078;28;20197;-45
2021/03/02 00:28:26;;;;;;;17.37;12.13;;;7.10;82.20;;;;;;5095948;28;20604;-45
2021/03/02 00:30:53;;;;;;;17.87;12.83;;;7.10;83.90;;;;;;5096102;28;20209;-59
2021/03/02 00:33:21;;;;;;;16.43;12.30;;;7.10;83.90;;;;;;5096133;28;20173;-50
2021/03/02 00:35:47;;;;;;;17.60;11.87;;;7.10;83.70;;;;;;5095796;28;20217;-47
2021/03/02 00:38:13;;;;;;;17.20;13.07;;;7.10;84.10;;;;;;5096110;28;20224;-47
2021/03/02 00:40:38;;;;;;;17.73;12.73;;;7.10;84.80;;;;;;5095938;28;20204;-45
2021/03/02 00:43:04;;;;;;;16.57;12.13;;;7.10;84.60;;;;;;5095618;28;20173;-46
2021/03/02 00:45:30;;;;;;;15.23;11.57;;;7.20;84.30;;;;;;5095884;28;20545;-44
2021/03/02 00:47:56;;;;;;;16.80;13.00;;;7.20;84.50;;;;;;5095687;28;20223;-46
2021/03/02 00:50:23;;;;;;;17.20;12.23;;;7.10;84.20;;;;;;5096136;28;20576;-43
2021/03/02 00:52:48;;;;;;;15.20;11.57;;;7.00;84.90;;;;;;5095784;28;20178;-52
2021/03/02 00:55:15;;;;;;;14.53;11.00;;;7.00;85.00;;;;;;5095689;28;20538;-54
2021/03/02 00:57:40;;;;;;;19.10;12.73;;;7.00;85.00;;;;;;5095770;28;20249;-47
2021/03/02 01:00:09;;;;;;;20.97;12.53;;;7.00;84.90;;;;;;5095443;28;20258;-43
2021/03/02 01:02:36;;;;;;;16.07;12.23;;;7.00;85.80;;;;;;5095542;28;20178;-43
2021/03/02 01:05:02;;;;;;;16.23;12.20;;;6.80;86.00;;;;;;5095290;28;20272;-44
2021/03/02 01:07:28;;;;;;;19.67;12.77;;;6.80;86.90;;;;;;5095461;28;20176;-46
2021/03/02 01:09:53;;;;;;;16.80;12.43;;;6.80;86.90;;;;;;5095255;28;20193;-45
2021/03/02 01:12:25;;;;;;;20.83;13.43;;;6.80;87.40;;;;;;5094971;28;20255;-54
2021/03/02 01:14:51;;;;;;;20.10;13.53;;;6.80;87.50;;;;;;5095151;28;20301;-47
2021/03/02 01:17:16;;;;;;;17.10;12.30;;;6.90;87.30;;;;;;5095090;28;20611;-46
2021/03/02 01:19:42;;;;;;;18.50;13.60;;;6.80;87.60;;;;;;5095050;28;20590;-48
2021/03/02 01:22:07;;;;;;;18.23;13.60;;;6.90;88.30;;;;;;5094860;28;20181;-45
2021/03/02 01:24:33;;;;;;;19.87;14.87;;;6.90;87.70;;;;;;5094837;28;20215;-43
2021/03/02 01:26:58;;;;;;;18.03;13.03;;;7.00;86.80;;;;;;5094949;28;20178;-50
2021/03/02 01:29:24;;;;;;;16.50;11.90;;;7.00;86.30;;;;;;5093538;28;20185;-42
2021/03/02 01:31:49;;;;;;;18.27;12.70;;;6.90;85.80;;;;;;5094890;28;20216;-44
2021/03/02 01:34:15;;;;;;;15.23;11.13;;;6.90;85.60;;;;;;5094987;28;20694;-46
2021/03/02 01:36:40;;;;;;;15.67;11.73;;;6.70;86.30;;;;;;5094542;28;20673;-43
2021/03/02 01:39:06;;;;;;;13.90;10.27;;;6.70;86.20;;;;;;5095095;28;20610;-45
2021/03/02 01:41:31;;;;;;;17.90;11.47;;;6.60;86.60;;;;;;5094603;28;20244;-46
2021/03/02 01:43:57;;;;;;;17.00;12.07;;;6.60;87.70;;;;;;5094008;28;20187;-50
2021/03/02 01:46:22;;;;;;;16.17;10.70;;;6.50;87.80;;;;;;5094991;28;20194;-55
2021/03/02 01:48:48;;;;;;;14.07;10.47;;;6.20;87.80;;;;;;5094557;28;20202;-56
2021/03/02 01:51:14;;;;;;;14.90;10.43;;;6.10;88.00;;;;;;5094739;28;20177;-49
2021/03/02 01:53:39;;;;;;;13.83;10.17;;;5.80;88.60;;;;;;5094929;28;20169;-49
2021/03/02 01:56:05;;;;;;;13.30;10.07;;;5.70;90.30;;;;;;5094194;28;20246;-50
2021/03/02 01:58:30;;;;;;;13.40;9.87;;;5.60;90.10;;;;;;5094513;28;20192;-42
2021/03/02 02:00:59;;;;;;;13.90;10.50;;;5.60;90.00;;;;;;5094426;28;20194;-44
2021/03/02 02:03:45;;;;;;;13.03;9.20;;;5.60;89.30;;;;;;5094250;28;20635;-49
2021/03/02 02:06:31;;;;;;;12.77;9.17;;;5.60;90.30;;;;;;5094509;28;20704;-48
2021/03/02 02:09:13;;;;;;;14.47;10.07;;;5.50;90.70;;;;;;5093909;28;20189;-43
2021/03/02 02:11:49;;;;;;;12.43;8.83;;;5.60;93.20;;;;;;5094239;28;20189;-45
2021/03/02 02:14:22;;;;;;;13.10;8.90;;;5.60;92.30;;;;;;5094555;28;20648;-47
2021/03/02 02:16:52;;;;;;;12.40;9.10;;;5.50;93.00;;;;;;5094217;28;20193;-45
2021/03/02 02:19:35;;;;;;;13.10;9.47;;;5.40;92.80;;;;;;5094506;28;20174;-46
2021/03/02 02:22:22;;;;;;;13.00;9.57;;;5.40;92.50;;;;;;5094190;28;20168;-49
2021/03/02 02:25:09;;;;;;;14.33;10.50;;;5.40;92.80;;;;;;5094071;28;20195;-49
2021/03/02 02:27:37;;;;;;;15.17;11.40;;;5.40;94.70;;;;;;5094464;28;20178;-46
2021/03/02 02:30:04;;;;;;;16.60;12.53;;;5.30;96.30;;;;;;5094153;28;20165;-43
2021/03/02 02:32:31;;;;;;;20.27;15.17;;;5.30;96.80;;;;;;5093711;28;20166;-44
2021/03/02 02:34:58;;;;;;;19.20;13.20;;;5.30;98.80;;;;;;5093790;28;20268;-45
2021/03/02 02:37:25;;;;;;;17.50;13.40;;;5.30;99.70;;;;;;5093897;28;20205;-47
2021/03/02 02:39:53;;;;;;;17.23;12.27;;;5.20;99.70;;;;;;5093970;28;20227;-50
2021/03/02 02:42:19;;;;;;;20.53;13.63;;;5.20;98.70;;;;;;5093961;28;20166;-52
2021/03/02 02:44:46;;;;;;;19.63;14.67;;;5.30;98.80;;;;;;5094098;28;20178;-46
2021/03/02 02:47:13;;;;;;;18.07;13.57;;;5.20;99.10;;;;;;5094042;28;20644;-46
2021/03/02 02:49:39;;;;;;;20.20;14.43;;;5.10;99.30;;;;;;5094175;28;20618;-46
2021/03/02 02:52:05;;;;;;;22.43;15.87;;;5.20;99.90;;;;;;5093724;28;20174;-52
2021/03/02 02:54:32;;;;;;;20.70;15.13;;;5.10;99.90;;;;;;5094405;28;20223;-46
2021/03/02 02:56:58;;;;;;;24.80;17.80;;;5.20;99.90;;;;;;5097998;28;20197;-47
2021/03/02 02:59:32;;;;;;;22.60;16.00;;;5.30;99.90;;;;;;5097825;28;20537;-43
2021/03/02 03:02:01;;;;;;;22.57;16.70;;;5.20;99.90;;;;;;5097585;28;20169;-51
2021/03/02 03:04:50;;;;;;;20.40;15.47;;;5.20;99.90;;;;;;5097768;28;20177;-49
2021/03/02 03:07:34;;;;;;;25.50;18.40;;;5.20;99.90;;;;;;5098153;28;20178;-52
2021/03/02 03:10:02;;;;;;;22.77;17.13;;;5.30;99.90;;;;;;5097587;28;20192;-50
2021/03/02 03:12:30;;;;;;;25.23;17.40;;;5.10;99.90;;;;;;5097496;28;20216;-50
2021/03/02 03:15:02;;;;;;;21.33;16.17;;;4.90;99.90;;;;;;5097636;28;20203;-50
2021/03/02 03:17:30;;;;;;;21.30;16.47;;;4.80;99.90;;;;;;5097484;28;20193;-45
2021/03/02 03:19:58;;;;;;;23.10;16.63;;;4.80;99.90;;;;;;5097600;28;20166;-48
2021/03/02 03:22:24;;;;;;;21.40;16.13;;;4.70;99.90;;;;;;5097262;28;20608;-49
2021/03/02 03:24:50;;;;;;;21.57;15.93;;;4.80;99.90;;;;;;5097540;28;20224;-49
2021/03/02 03:27:17;;;;;;;21.30;16.03;;;4.90;99.90;;;;;;5097581;28;20260;-48
2021/03/02 03:29:43;;;;;;;22.20;15.80;;;4.90;99.90;;;;;;5097274;28;20165;-53
2021/03/02 03:32:11;;;;;;;20.50;15.10;;;4.70;99.90;;;;;;5097179;28;20170;-45
2021/03/02 03:34:39;;;;;;;21.80;16.30;;;4.60;99.90;;;;;;5097196;28;20317;-46
2021/03/02 03:37:05;;;;;;;23.00;16.97;;;4.50;99.90;;;;;;5097130;28;20204;-49
2021/03/02 03:39:30;;;;;;;22.43;16.03;;;4.40;99.90;;;;;;5097026;28;20158;-46
2021/03/02 03:41:56;;;;;;;20.10;14.67;;;4.30;99.90;;;;;;5096708;28;20524;-46
2021/03/02 03:44:21;;;;;;;21.23;15.13;;;4.20;99.90;;;;;;5096829;28;20618;-50
2021/03/02 03:46:47;;;;;;;23.17;16.10;;;4.20;99.90;;;;;;5096846;28;20176;-49
2021/03/02 03:49:13;;;;;;;23.40;15.83;;;4.20;99.90;;;;;;5097150;28;20162;-50
2021/03/02 03:51:40;;;;;;;20.83;14.77;;;4.20;99.90;;;;;;5096545;28;20178;-47
2021/03/02 03:54:07;;;;;;;20.57;14.67;;;4.10;99.90;;;;;;5096836;28;20257;-44
2021/03/02 03:56:34;;;;;;;20.13;14.13;;;4.20;99.90;;;;;;5096706;28;20939;-46
2021/03/02 03:59:01;;;;;;;22.90;15.80;;;4.20;99.90;;;;;;5095297;28;20436;-43
2021/03/02 04:01:27;;;;;;;21.63;16.27;;;4.10;99.90;;;;;;5096195;28;20166;-46
2021/03/02 04:03:54;;;;;;;25.20;17.17;;;4.10;99.90;;;;;;5096269;28;20435;-46
2021/03/02 04:06:19;;;;;;;23.77;17.63;;;4.00;99.90;;;;;;5095646;28;20215;-45
2021/03/02 04:08:46;;;;;;;26.17;18.27;;;3.90;99.90;;;;;;5096525;28;20174;-43
2021/03/02 04:11:12;;;;;;;29.20;18.37;;;3.90;99.90;;;;;;5095821;28;20189;-46
2021/03/02 04:13:38;;;;;;;25.83;17.83;;;3.80;99.90;;;;;;5096477;28;20514;-50
2021/03/02 04:16:04;;;;;;;28.43;21.07;;;3.80;99.90;;;;;;5096035;28;20259;-46
2021/03/02 04:18:30;;;;;;;27.87;20.77;;;3.80;99.90;;;;;;5096535;28;20177;-54
2021/03/02 04:20:58;;;;;;;30.90;19.73;;;3.80;99.90;;;;;;5096061;28;20169;-53
2021/03/02 04:23:24;;;;;;;29.07;20.63;;;3.80;99.90;;;;;;5095995;28;20166;-45
2021/03/02 04:25:49;;;;;;;27.43;20.53;;;3.70;99.90;;;;;;5095957;28;20204;-47
2021/03/02 04:28:15;;;;;;;30.97;20.70;;;3.60;99.90;;;;;;5096051;28;20178;-48
2021/03/02 04:30:40;;;;;;;31.23;22.07;;;3.60;99.90;;;;;;5096181;28;20188;-42
2021/03/02 04:33:06;;;;;;;26.00;20.30;;;3.60;99.90;;;;;;5095782;28;20186;-46
2021/03/02 04:35:32;;;;;;;27.77;19.83;;;3.60;99.90;;;;;;5095656;28;20190;-46
2021/03/02 04:37:58;;;;;;;31.07;21.77;;;3.70;99.90;;;;;;5095934;28;20181;-51
2021/03/02 04:40:23;;;;;;;28.83;21.17;;;3.70;99.90;;;;;;5095807;28;20169;-45
2021/03/02 04:42:49;;;;;;;30.43;22.53;;;3.70;99.90;;;;;;5091970;28;20784;-52
2021/03/02 04:45:15;;;;;;;36.20;22.60;;;3.70;99.90;;;;;;5084522;28;20212;-45
2021/03/02 04:47:44;;;;;;;29.13;22.07;;;3.70;99.90;;;;;;5084080;28;20265;-45
2021/03/02 04:50:10;;;;;;;30.07;22.13;;;3.70;99.90;;;;;;5084572;28;20404;-51
2021/03/02 04:52:36;;;;;;;32.87;22.93;;;3.70;99.90;;;;;;5084333;28;20416;-49
2021/03/02 04:55:03;;;;;;;33.87;23.63;;;3.70;99.90;;;;;;5082146;28;20443;-47
2021/03/02 04:57:28;;;;;;;33.00;22.10;;;3.70;99.90;;;;;;5079335;28;20202;-43
2021/03/02 04:59:54;;;;;;;31.53;21.57;;;3.60;99.90;;;;;;5085224;28;20443;-47
2021/03/02 05:02:19;;;;;;;30.30;21.50;;;3.70;99.90;;;;;;5083828;28;20178;-50
2021/03/02 05:04:45;;;;;;;30.17;20.73;;;3.80;99.90;;;;;;5083548;28;20221;-45
2021/03/02 05:07:11;;;;;;;30.07;21.43;;;3.80;99.90;;;;;;5085279;28;20178;-42
2021/03/02 05:09:36;;;;;;;31.73;22.33;;;3.80;99.90;;;;;;5081993;28;20240;-42
2021/03/02 05:12:02;;;;;;;30.73;21.70;;;3.70;99.90;;;;;;5077055;28;20186;-45
2021/03/02 05:14:27;;;;;;;28.53;20.63;;;3.80;99.90;;;;;;5074974;28;20186;-46
2021/03/02 05:16:53;;;;;;;29.17;20.93;;;3.80;99.90;;;;;;5076039;28;20616;-46
2021/03/02 05:19:18;;;;;;;30.00;21.73;;;3.80;99.90;;;;;;5094103;28;20162;-50
2021/03/02 05:21:44;;;;;;;32.87;22.97;;;3.80;99.90;;;;;;5094764;28;20537;-45
2021/03/02 05:24:10;;;;;;;30.67;21.97;;;3.80;99.90;;;;;;5095103;28;20201;-44
2021/03/02 05:26:36;;;;;;;30.00;22.47;;;3.80;99.90;;;;;;5094671;28;20557;-46
2021/03/02 05:29:01;;;;;;;31.93;22.60;;;3.80;99.90;;;;;;5094793;28;20174;-50
2021/03/02 05:31:27;;;;;;;34.23;23.23;;;3.80;99.90;;;;;;5094663;28;20170;-46
2021/03/02 05:33:53;;;;;;;31.90;22.40;;;3.80;99.90;;;;;;5094853;28;20174;-50
2021/03/02 05:36:18;;;;;;;30.90;22.07;;;3.80;99.90;;;;;;5094756;28;20197;-48
2021/03/02 05:38:44;;;;;;;30.40;21.60;;;3.80;99.90;;;;;;5093615;28;20172;-46
2021/03/02 05:41:10;;;;;;;29.63;21.80;;;3.80;99.90;;;;;;5089365;28;20576;-42
2021/03/02 05:43:40;;;;;;;33.40;22.60;;;3.90;99.90;;;;;;5079761;28;20201;-52
2021/03/02 05:46:07;;;;;;;34.33;23.57;;;3.90;99.90;;;;;;5093991;28;20458;-51
2021/03/02 05:48:32;;;;;;;33.00;23.17;;;3.90;99.90;;;;;;5080287;28;20423;-48
2021/03/02 05:50:58;;;;;;;32.70;23.03;;;3.80;99.90;;;;;;5072847;28;20405;-45
2021/03/02 05:53:24;;;;;;;32.73;23.10;;;3.80;99.90;;;;;;5082395;28;20193;-48
2021/03/02 05:55:50;;;;;;;34.07;23.13;;;3.80;99.90;;;;;;5091947;28;20553;-44
2021/03/02 05:58:16;;;;;;;32.57;23.63;;;3.80;99.90;;;;;;5092102;28;20408;-46
2021/03/02 06:00:42;;;;;;;32.33;22.77;;;3.80;99.90;;;;;;5092046;28;20166;-49
2021/03/02 06:03:08;;;;;;;31.87;21.40;;;3.80;99.90;;;;;;5096816;28;20177;-50
2021/03/02 06:05:35;;;;;;;32.83;23.13;;;3.80;99.90;;;;;;5101669;28;20435;-47
2021/03/02 06:08:00;;;;;;;33.80;21.90;;;3.80;99.90;;;;;;5088833;28;20634;-44
2021/03/02 06:10:30;;;;;;;30.03;21.73;;;3.80;99.90;;;;;;5079215;28;20435;-45
2021/03/02 06:12:57;;;;;;;31.60;21.57;;;3.80;99.90;;;;;;5079514;28;20171;-45
2021/03/02 06:15:25;;;;;;;33.23;23.37;;;3.90;99.90;;;;;;5076374;28;20446;-47
2021/03/02 06:18:09;;;;;;;31.27;22.13;;;3.90;99.90;;;;;;5073740;28;20484;-46
2021/03/02 06:20:35;;;;;;;31.67;22.47;;;3.90;99.90;;;;;;5082857;28;20427;-52
2021/03/02 06:23:25;;;;;;;31.47;21.90;;;4.00;99.90;;;;;;5074068;28;20432;-45
2021/03/02 06:26:14;;;;;;;33.03;22.17;;;4.10;99.90;;;;;;5088472;28;20440;-43
2021/03/02 06:28:42;;;;;;;34.83;24.33;;;4.10;99.90;;;;;;5092448;28;20522;-45
2021/03/02 06:31:28;;;;;;;38.90;27.00;;;4.00;99.90;;;;;;5093528;28;20411;-45
2021/03/02 06:34:10;;;;;;;34.03;25.50;;;3.90;99.90;;;;;;5081552;28;20431;-51
2021/03/02 06:36:37;;;;;;;31.83;23.13;;;4.00;99.90;;;;;;5080302;28;20236;-50
2021/03/02 06:39:34;;;;;;;32.83;23.20;;;3.90;99.90;;;;;;5075214;28;20246;-46
2021/03/02 06:42:21;;;;;;;30.83;21.70;;;3.90;99.90;;;;;;5077350;28;20179;-48
2021/03/02 06:45:03;;;;;;;32.63;22.57;;;4.00;99.90;;;;;;5074687;28;20440;-47
2021/03/02 06:47:30;;;;;;;32.63;23.83;;;4.10;99.90;;;;;;5084157;28;20419;-50
2021/03/02 06:49:56;;;;;;;30.07;21.80;;;4.20;99.90;;;;;;5079380;28;20427;-57
2021/03/02 06:52:35;;;;;;;29.37;22.13;;;4.30;99.90;;;;;;5083172;28;20517;-56
2021/03/02 06:55:02;;;;;;;33.50;23.93;;;4.50;99.90;;;;;;5092932;28;20189;-47
2021/03/02 06:57:28;;;;;;;31.83;23.73;;;4.50;99.90;;;;;;5083582;28;20222;-48
2021/03/02 06:59:55;;;;;;;29.83;22.03;;;4.50;99.90;;;;;;5074433;28;20562;-54
2021/03/02 07:02:50;;;;;;;30.47;21.60;;;4.60;99.90;;;;;;5087060;28;20252;-55
2021/03/02 07:05:19;;;;;;;29.97;21.63;;;4.70;99.90;;;;;;5011290;28;20209;-52
2021/03/02 07:07:55;;;;;;;29.73;21.90;;;4.80;99.90;;;;;;5009070;28;20223;-56
2021/03/02 07:10:22;;;;;;;29.77;22.20;;;4.70;99.90;;;;;;5011135;28;20219;-53
2021/03/02 07:12:47;;;;;;;30.17;21.67;;;4.90;99.90;;;;;;5002481;28;20704;-53
2021/03/02 07:15:18;;;;;;;28.90;21.30;;;4.90;99.90;;;;;;5006307;28;20208;-48
2021/03/02 07:17:45;;;;;;;28.60;20.23;;;4.70;99.90;;;;;;5005789;28;20710;-46
2021/03/02 07:20:13;;;;;;;27.00;20.57;;;4.70;99.90;;;;;;4995011;28;20177;-50
2021/03/02 07:22:40;;;;;;;27.10;19.90;;;4.70;99.90;;;;;;5010018;28;20242;-48
2021/03/02 07:25:11;;;;;;;27.57;20.53;;;4.90;99.90;;;;;;5009317;28;20208;-48
2021/03/02 07:27:41;;;;;;;26.70;20.00;;;5.10;99.90;;;;;;5011753;28;20165;-47
2021/03/02 07:30:08;;;;;;;32.33;21.13;;;5.10;99.90;;;;;;5012288;28;20545;-50
2021/03/02 07:32:34;;;;;;;28.20;20.43;;;5.10;99.90;;;;;;5011887;28;20180;-48
2021/03/02 07:35:00;;;;;;;27.40;20.10;;;5.00;99.90;;;;;;5011936;28;20309;-47
2021/03/02 07:37:25;;;;;;;28.77;19.37;;;5.00;99.90;;;;;;5012168;28;20208;-56
2021/03/02 07:40:04;;;;;;;26.93;19.20;;;5.10;99.90;;;;;;5011380;28;20192;-48
2021/03/02 07:42:29;;;;;;;40.23;23.53;;;5.00;99.90;;;;;;5082718;28;20314;-48
2021/03/02 07:45:04;;;;;;;29.57;20.20;;;4.80;99.90;;;;;;5096606;28;20580;-53
2021/03/02 07:47:50;;;;;;;38.90;20.77;;;4.60;99.90;;;;;;5098023;28;20188;-49
2021/03/02 07:50:25;;;;;;;29.70;20.90;;;4.30;99.90;;;;;;5098160;28;20170;-53
2021/03/02 07:53:24;;;;;;;66.47;23.00;;;4.20;99.90;;;;;;5097391;28;20170;-48
2021/03/02 07:56:15;;;;;;;66.40;22.37;;;4.10;99.90;;;;;;5097160;28;20198;-48
2021/03/02 07:58:41;;;;;;;109.77;25.50;;;3.90;99.90;;;;;;5097531;28;20197;-46
2021/03/02 08:01:23;;;;;;;54.63;24.97;;;3.80;99.90;;;;;;5097258;28;20172;-53
2021/03/02 08:03:49;;;;;;;43.67;22.40;;;3.70;99.90;;;;;;5098117;28;20400;-52
2021/03/02 08:06:21;;;;;;;81.00;23.40;;;3.70;99.90;;;;;;5098339;28;20205;-46
2021/03/02 08:08:47;;;;;;;31.30;22.23;;;3.70;99.90;;;;;;5096550;28;20174;-49
2021/03/02 08:11:33;;;;;;;34.57;22.70;;;3.60;99.90;;;;;;5096725;28;20698;-49
2021/03/02 08:14:01;;;;;;;82.13;38.20;;;3.60;99.90;;;;;;5096714;28;20657;-49
2021/03/02 08:17:02;;;;;;;62.23;25.23;;;3.60;99.90;;;;;;5097430;28;20205;-57
2021/03/02 08:19:51;;;;;;;63.47;25.00;;;3.70;99.90;;;;;;5014742;28;20183;-47
2021/03/02 08:22:19;;;;;;;49.03;24.00;;;3.70;99.90;;;;;;5013600;28;20275;-49
2021/03/02 08:24:49;;;;;;;35.93;24.10;;;3.70;99.90;;;;;;5014235;28;20724;-49
2021/03/02 08:27:16;;;;;;;33.30;22.63;;;3.80;99.90;;;;;;5014651;28;20204;-48
2021/03/02 08:29:51;;;;;;;33.47;23.40;;;3.70;99.90;;;;;;5015099;28;20431;-47
2021/03/02 08:32:18;;;;;;;47.73;24.80;;;3.70;99.90;;;;;;5014245;28;20458;-52
2021/03/02 08:34:45;;;;;;;60.93;25.53;;;3.70;99.90;;;;;;5014386;28;20445;-53
2021/03/02 08:37:10;;;;;;;32.67;23.70;;;3.70;99.90;;;;;;5014293;28;20215;-49
2021/03/02 08:39:36;;;;;;;36.80;22.83;;;3.70;99.90;;;;;;5014924;28;20180;-52
2021/03/02 08:42:06;;;;;;;45.07;25.30;;;3.70;99.90;;;;;;5013952;28;20632;-50
2021/03/02 08:44:32;;;;;;;32.23;23.17;;;3.70;99.90;;;;;;5014626;28;20191;-47
2021/03/02 08:46:57;;;;;;;32.57;22.80;;;3.80;99.90;;;;;;5013536;28;20279;-50
2021/03/02 08:49:24;;;;;;;38.63;23.97;;;4.00;99.90;;;;;;5013879;28;20184;-46
2021/03/02 08:51:59;;;;;;;32.13;22.53;;;4.10;99.90;;;;;;5014198;28;20184;-54
2021/03/02 08:54:24;;;;;;;34.73;24.10;;;4.20;99.90;;;;;;5088223;28;20739;-51
2021/03/02 08:57:03;;;;;;;34.23;24.90;;;4.40;99.90;;;;;;5096411;28;20295;-46
2021/03/02 08:59:30;;;;;;;30.80;23.53;;;4.60;99.90;;;;;;5095495;28;20192;-48
2021/03/02 09:01:56;;;;;;;48.43;24.57;;;4.70;99.90;;;;;;5095664;28;20166;-46
2021/03/02 09:04:24;;;;;;;28.90;21.60;;;4.70;99.90;;;;;;5096392;28;20563;-54
2021/03/02 09:06:51;;;;;;;29.10;21.83;;;4.80;99.90;;;;;;5096313;28;20182;-47
2021/03/02 09:09:22;;;;;;;31.63;23.47;;;4.90;99.90;;;;;;5095909;28;20184;-52
2021/03/02 09:11:53;;;;;;;31.60;23.23;;;5.20;99.90;;;;;;5096607;28;20196;-51
2021/03/02 09:14:29;;;;;;;29.63;21.70;;;5.30;99.90;;;;;;5096532;28;20186;-48
2021/03/02 09:16:59;;;;;;;29.23;21.40;;;5.40;99.90;;;;;;5095714;28;20208;-49
2021/03/02 09:19:30;;;;;;;32.03;23.10;;;5.60;99.90;;;;;;5095974;28;20177;-56
2021/03/02 09:21:59;;;;;;;28.97;21.73;;;5.80;99.90;;;;;;5094691;28;20200;-48
2021/03/02 09:24:27;;;;;;;26.73;19.13;;;6.10;99.90;;;;;;5095464;28;20170;-54
2021/03/02 09:27:04;;;;;;;23.80;18.60;;;6.50;99.90;;;;;;5092762;28;20194;-50
2021/03/02 09:29:35;;;;;;;24.47;18.80;;;6.50;99.90;;;;;;5092224;28;20184;-53
2021/03/02 09:32:03;;;;;;;23.50;19.30;;;7.00;99.90;;;;;;5092685;28;20633;-54
2021/03/02 09:34:46;;;;;;;23.27;17.70;;;7.70;99.90;;;;;;5093168;28;20180;-47
2021/03/02 09:37:17;;;;;;;20.87;16.80;;;9.30;99.90;;;;;;5093192;28;20205;-52
2021/03/02 09:39:54;;;;;;;22.43;17.67;;;11.00;99.90;;;;;;5092801;28;20172;-55
2021/03/02 09:42:22;;;;;;;20.80;16.93;;;13.20;99.90;;;;;;5094463;28;20172;-51
2021/03/02 09:44:53;;;;;;;19.37;16.70;;;15.10;96.00;;;;;;5095208;28;20194;-47
2021/03/02 09:47:27;;;;;;;17.50;15.70;;;17.00;91.70;;;;;;5094771;28;20176;-52
2021/03/02 09:50:00;;;;;;;19.17;15.37;;;19.00;87.40;;;;;;5095224;28;20177;-53
2021/03/02 09:52:41;;;;;;;16.30;14.68;;;21.50;76.50;;;;;;5094871;28;20173;-53
2021/03/02 09:55:19;;;;;;;17.17;15.40;;;24.00;68.20;;;;;;5094710;28;20302;-52
2021/03/02 09:58:14;;;;;;;15.73;14.13;;;26.70;57.80;;;;;;5094993;28;20205;-59
2021/03/02 10:00:45;;;;;;;14.93;13.48;;;29.50;51.50;;;;;;5077790;28;20197;-57
2021/03/02 10:03:24;;;;;;;16.23;14.73;;;31.10;47.80;;;;;;5093896;28;20511;-51
2021/03/02 10:05:52;;;;;;;15.57;14.07;;;31.80;43.40;;;;;;5094347;28;20661;-57
2021/03/02 10:08:42;;;;;;;15.65;14.18;;;32.90;41.50;;;;;;5094036;28;20177;-49
2021/03/02 10:11:10;;;;;;;15.95;14.35;;;33.60;39.70;;;;;;5084042;28;20669;-51
2021/03/02 10:13:46;;;;;;;14.52;13.23;;;34.80;37.50;;;;;;5094058;28;20218;-53
2021/03/02 10:16:31;;;;;;;15.27;13.77;;;34.10;38.20;;;;;;5094353;28;20205;-60
2021/03/02 10:19:04;;;;;;;15.27;13.88;;;34.70;35.70;;;;;;5094817;28;20249;-57
2021/03/02 10:21:35;;;;;;;13.32;12.10;;;34.70;36.10;;;;;;5093876;28;20161;-51
2021/03/02 10:24:02;;;;;;;16.17;14.68;;;34.10;35.90;;;;;;5093776;28;20165;-60
2021/03/02 10:26:33;;;;;;;15.57;14.27;;;33.50;35.50;;;;;;5094889;28;20197;-57
2021/03/02 10:29:00;;;;;;;16.95;15.30;;;32.10;37.20;;;;;;5094472;28;20644;-52
2021/03/02 10:31:26;;;;;;;15.32;14.00;;;31.60;37.40;;;;;;5093516;28;20264;-55
2021/03/02 10:33:53;;;;;;;15.50;14.00;;;31.70;37.60;;;;;;5093989;28;20170;-57
2021/03/02 10:36:19;;;;;;;16.45;15.02;;;32.90;36.30;;;;;;5094249;28;20206;-50
2021/03/02 10:38:45;;;;;;;14.43;13.07;;;34.30;34.90;;;;;;5094231;28;20174;-54
2021/03/02 10:41:11;;;;;;;16.05;14.55;;;34.30;35.20;;;;;;5093715;28;20666;-59
2021/03/02 10:43:36;;;;;;;15.07;13.57;;;34.40;34.80;;;;;;5093962;28;20174;-53
2021/03/02 10:46:02;;;;;;;16.45;14.90;;;32.60;35.90;;;;;;5093606;28;20272;-48
2021/03/02 10:48:28;;;;;;;15.68;14.20;;;31.70;36.40;;;;;;5093869;28;20529;-56
2021/03/02 10:50:53;;;;;;;16.17;14.70;;;31.10;37.70;;;;;;5094526;28;20178;-57
2021/03/02 10:53:19;;;;;;;15.20;13.70;;;30.90;37.90;;;;;;5093761;28;20174;-58
2021/03/02 10:55:44;;;;;;;14.23;12.93;;;31.50;37.30;;;;;;5093444;28;20258;-51
2021/03/02 10:58:10;;;;;;;17.23;15.63;;;33.50;35.60;;;;;;5094040;28;20207;-56
2021/03/02 11:00:35;;;;;;;15.68;14.25;;;35.50;33.30;;;;;;5093934;28;20170;-57
2021/03/02 11:03:02;;;;;;;16.92;15.43;;;37.00;31.40;;;;;;5093456;28;20169;-58
2021/03/02 11:05:28;;;;;;;16.50;14.98;;;37.20;30.80;;;;;;5093431;28;20537;-52
2021/03/02 11:07:53;;;;;;;13.60;12.40;;;36.80;31.40;;;;;;5093611;28;20641;-57
2021/03/02 11:10:19;;;;;;;13.48;12.27;;;38.20;30.80;;;;;;5093313;28;20718;-53
2021/03/02 11:12:45;;;;;;;13.80;12.50;;;39.70;29.70;;;;;;5093829;28;20693;-49
2021/03/02 11:15:11;;;;;;;13.15;12.05;;;40.20;28.70;;;;;;5094060;28;20231;-52
2021/03/02 11:17:38;;;;;;;15.13;13.63;;;40.40;28.80;;;;;;5097225;28;20660;-61
2021/03/02 11:20:05;;;;;;;14.10;12.80;;;39.80;28.80;;;;;;5098194;28;20180;-58
2021/03/02 11:22:31;;;;;;;14.40;13.10;;;38.60;29.30;;;;;;5097186;28;20180;-58
2021/03/02 11:24:56;;;;;;;16.38;14.98;;;37.80;30.10;;;;;;5097203;28;20197;-54
2021/03/02 11:27:22;;;;;;;14.68;13.38;;;36.70;31.30;;;;;;5097782;28;20196;-55
2021/03/02 11:29:47;;;;;;;16.67;15.25;;;37.50;30.40;;;;;;5097685;28;20200;-50
2021/03/02 11:32:13;;;;;;;16.98;15.52;;;37.40;29.80;;;;;;5096839;28;20252;-61
2021/03/02 11:34:39;;;;;;;16.65;15.05;;;36.40;30.80;;;;;;5097683;28;20231;-58
2021/03/02 11:37:05;;;;;;;16.73;15.23;;;35.30;31.20;;;;;;5097045;28;20225;-56
2021/03/02 11:39:30;;;;;;;15.65;14.13;;;36.30;31.30;;;;;;5097593;28;20227;-52
2021/03/02 11:41:56;;;;;;;14.82;13.52;;;37.40;29.90;;;;;;5096978;28;20214;-56
2021/03/02 11:44:21;;;;;;;13.80;12.50;;;37.10;30.90;;;;;;5096731;28;20595;-58
2021/03/02 11:46:47;;;;;;;14.70;13.30;;;38.90;30.60;;;;;;5096921;28;20239;-60
2021/03/02 11:49:13;;;;;;;14.50;13.27;;;40.00;28.70;;;;;;5097593;28;20218;-51
2021/03/02 11:51:39;;;;;;;14.40;13.15;;;41.00;28.00;;;;;;5096433;28;20173;-61
2021/03/02 11:54:04;;;;;;;14.50;13.20;;;39.50;28.70;;;;;;5096875;28;20526;-61
2021/03/02 11:56:30;;;;;;;14.30;12.80;;;39.50;28.50;;;;;;5096982;28;20641;-59
2021/03/02 11:58:55;;;;;;;13.80;12.52;;;40.10;27.90;;;;;;5096828;28;20617;-56
2021/03/02 12:01:21;;;;;;;16.55;14.98;;;39.50;28.70;;;;;;5096177;28;20625;-60
2021/03/02 12:03:46;;;;;;;16.23;14.73;;;39.40;27.50;;;;;;5095854;28;20236;-60
2021/03/02 12:06:12;;;;;;;15.48;14.07;;;38.40;28.40;;;;;;5096649;28;20189;-56
2021/03/02 12:08:38;;;;;;;15.30;13.98;;;37.00;29.70;;;;;;5096725;28;20169;-54
2021/03/02 12:11:03;;;;;;;14.57;13.27;;;34.70;31.60;;;;;;5095702;28;20189;-54
2021/03/02 12:13:29;;;;;;;14.55;13.25;;;33.30;32.30;;;;;;5096554;28;20177;-60
2021/03/02 12:15:55;;;;;;;16.45;14.93;;;33.00;32.20;;;;;;5096262;28;20259;-56
2021/03/02 12:18:21;;;;;;;14.60;13.20;;;33.00;31.60;;;;;;5096359;28;20201;-51
2021/03/02 12:20:47;;;;;;;14.30;13.00;;;33.60;31.20;;;;;;5096367;28;20186;-58
2021/03/02 12:23:13;;;;;;;15.95;14.45;;;32.80;32.60;;;;;;5096017;28;20652;-60
2021/03/02 12:25:38;;;;;;;15.43;13.93;;;32.90;31.50;;;;;;5095898;28;20235;-52
2021/03/02 12:28:04;;;;;;;15.68;14.23;;;32.40;31.60;;;;;;5095893;28;20517;-52
2021/03/02 12:30:30;;;;;;;14.82;13.43;;;32.20;31.80;;;;;;5096415;28;20170;-55
2021/03/02 12:32:56;;;;;;;13.63;12.23;;;31.70;32.60;;;;;;5096452;28;20174;-60
2021/03/02 12:35:21;;;;;;;14.27;12.98;;;31.50;34.30;;;;;;5095945;28;20191;-57
2021/03/02 12:37:47;;;;;;;14.98;12.90;;;31.30;33.80;;;;;;5096416;28;20194;-51
2021/03/02 12:40:13;;;;;;;14.30;12.90;;;31.20;33.50;;;;;;5095692;28;20550;-53
2021/03/02 12:42:39;;;;;;;14.82;13.40;;;30.90;33.30;;;;;;5095753;28;20177;-49
2021/03/02 12:45:05;;;;;;;14.02;12.63;;;30.10;34.70;;;;;;5096699;28;20186;-57